Yakutat, Alaska
Current Conditions -  °F | °C
As of 2:53 PM on Friday 21 Nov 2014 (Local Time) from PAYA Reporting Station
Light Rain Light Rain  
Wind Chill: 32°   Ceiling: 2900
Heat Index: 37°   Visibility: 6mi
Dew Point: 36°   Wind: 7mph
Humidity: 96%   Direction: 50°NE
Pressure: 29.01"   Gusts: NA
Location:  59.54°N, 139.73°W
Report Text: PAYA 212353Z 05006KT 6SM -RA BR OVC029 03/02 A2901 RMK AO2 SLP825 P0006 60006 T00280022 10044 20006 50002
Loading
Personal Weather Stations






























Interactive Weather Map New forecast layout! Learn more

10-Day Weather Forecast

Advertisements
Track Severe Weather on mobile